sensor_id;sensor_type;location;lat;lon;timestamp;P1;durP1;ratioP1;P2;durP2;ratioP2
12350;SDS011;6240;51.538;7.696;2023-03-14T00:01:46;3.33;;;1.80;;
12350;SDS011;6240;51.538;7.696;2023-03-14T00:04:14;4.27;;;1.73;;
12350;SDS011;6240;51.538;7.696;2023-03-14T00:06:41;4.50;;;1.63;;
12350;SDS011;6240;51.538;7.696;2023-03-14T00:09:08;3.37;;;1.40;;
12350;SDS011;6240;51.538;7.696;2023-03-14T00:11:37;3.00;;;1.33;;
12350;SDS011;6240;51.538;7.696;2023-03-14T00:14:04;3.43;;;1.50;;
12350;SDS011;6240;51.538;7.696;2023-03-14T00:16:31;5.83;;;1.97;;
12350;SDS011;6240;51.538;7.696;2023-03-14T00:18:59;2.83;;;1.63;;
12350;SDS011;6240;51.538;7.696;2023-03-14T00:21:26;1.90;;;1.27;;
12350;SDS011;6240;51.538;7.696;2023-03-14T00:23:53;4.90;;;1.83;;
12350;SDS011;6240;51.538;7.696;2023-03-14T00:26:20;6.57;;;1.83;;
12350;SDS011;6240;51.538;7.696;2023-03-14T00:28:52;3.60;;;1.30;;
12350;SDS011;6240;51.538;7.696;2023-03-14T00:31:19;3.83;;;1.70;;
12350;SDS011;6240;51.538;7.696;2023-03-14T00:33:46;4.53;;;1.70;;
12350;SDS011;6240;51.538;7.696;2023-03-14T00:36:14;3.40;;;1.40;;
12350;SDS011;6240;51.538;7.696;2023-03-14T00:38:42;3.27;;;1.53;;
12350;SDS011;6240;51.538;7.696;2023-03-14T00:41:10;3.63;;;1.63;;
12350;SDS011;6240;51.538;7.696;2023-03-14T00:43:37;4.20;;;1.37;;
12350;SDS011;6240;51.538;7.696;2023-03-14T00:46:06;7.07;;;1.97;;
12350;SDS011;6240;51.538;7.696;2023-03-14T00:48:33;3.47;;;1.30;;
12350;SDS011;6240;51.538;7.696;2023-03-14T00:51:01;3.33;;;1.40;;
12350;SDS011;6240;51.538;7.696;2023-03-14T00:53:28;4.00;;;1.43;;
12350;SDS011;6240;51.538;7.696;2023-03-14T00:55:55;2.47;;;1.20;;
12350;SDS011;6240;51.538;7.696;2023-03-14T00:58:22;2.93;;;1.33;;
12350;SDS011;6240;51.538;7.696;2023-03-14T01:00:50;4.07;;;1.53;;
12350;SDS011;6240;51.538;7.696;2023-03-14T01:03:18;3.87;;;1.60;;
12350;SDS011;6240;51.538;7.696;2023-03-14T01:05:45;3.20;;;1.50;;
12350;SDS011;6240;51.538;7.696;2023-03-14T01:08:12;3.77;;;1.50;;
12350;SDS011;6240;51.538;7.696;2023-03-14T01:10:40;5.83;;;1.70;;
12350;SDS011;6240;51.538;7.696;2023-03-14T01:13:08;2.77;;;1.30;;
12350;SDS011;6240;51.538;7.696;2023-03-14T01:15:36;4.00;;;1.83;;
12350;SDS011;6240;51.538;7.696;2023-03-14T01:18:03;5.40;;;1.67;;
12350;SDS011;6240;51.538;7.696;2023-03-14T01:20:32;5.30;;;1.70;;
12350;SDS011;6240;51.538;7.696;2023-03-14T01:22:59;5.00;;;1.83;;
12350;SDS011;6240;51.538;7.696;2023-03-14T01:25:26;3.57;;;1.73;;
12350;SDS011;6240;51.538;7.696;2023-03-14T01:27:55;4.53;;;1.67;;
12350;SDS011;6240;51.538;7.696;2023-03-14T01:30:22;5.00;;;1.60;;
12350;SDS011;6240;51.538;7.696;2023-03-14T01:32:49;3.47;;;1.67;;
12350;SDS011;6240;51.538;7.696;2023-03-14T01:35:16;8.13;;;2.17;;
12350;SDS011;6240;51.538;7.696;2023-03-14T01:37:45;5.57;;;1.70;;
12350;SDS011;6240;51.538;7.696;2023-03-14T01:40:12;3.80;;;1.50;;
12350;SDS011;6240;51.538;7.696;2023-03-14T01:42:44;5.17;;;1.80;;
12350;SDS011;6240;51.538;7.696;2023-03-14T01:47:53;6.57;;;1.40;;
12350;SDS011;6240;51.538;7.696;2023-03-14T01:50:20;7.07;;;2.10;;
12350;SDS011;6240;51.538;7.696;2023-03-14T01:52:49;4.00;;;1.30;;
12350;SDS011;6240;51.538;7.696;2023-03-14T01:55:19;2.10;;;1.20;;
12350;SDS011;6240;51.538;7.696;2023-03-14T01:57:47;2.40;;;1.27;;
12350;SDS011;6240;51.538;7.696;2023-03-14T02:00:17;1.73;;;1.00;;
12350;SDS011;6240;51.538;7.696;2023-03-14T02:02:46;3.10;;;1.03;;
12350;SDS011;6240;51.538;7.696;2023-03-14T02:05:14;3.43;;;1.30;;
12350;SDS011;6240;51.538;7.696;2023-03-14T02:07:44;2.80;;;1.10;;
12350;SDS011;6240;51.538;7.696;2023-03-14T02:10:14;4.43;;;1.33;;
12350;SDS011;6240;51.538;7.696;2023-03-14T02:12:44;4.80;;;1.30;;
12350;SDS011;6240;51.538;7.696;2023-03-14T02:15:11;2.70;;;1.00;;
12350;SDS011;6240;51.538;7.696;2023-03-14T02:17:39;3.53;;;1.10;;
12350;SDS011;6240;51.538;7.696;2023-03-14T02:20:13;3.53;;;1.40;;
12350;SDS011;6240;51.538;7.696;2023-03-14T02:22:45;4.10;;;1.40;;
12350;SDS011;6240;51.538;7.696;2023-03-14T02:25:15;3.37;;;1.23;;
12350;SDS011;6240;51.538;7.696;2023-03-14T02:27:45;3.60;;;1.20;;
12350;SDS011;6240;51.538;7.696;2023-03-14T02:30:14;3.87;;;1.40;;
12350;SDS011;6240;51.538;7.696;2023-03-14T02:32:43;1.13;;;0.80;;
12350;SDS011;6240;51.538;7.696;2023-03-14T02:35:12;5.63;;;1.43;;
12350;SDS011;6240;51.538;7.696;2023-03-14T02:37:41;2.93;;;1.00;;
12350;SDS011;6240;51.538;7.696;2023-03-14T02:40:10;2.60;;;1.17;;
12350;SDS011;6240;51.538;7.696;2023-03-14T02:42:37;2.57;;;1.20;;
12350;SDS011;6240;51.538;7.696;2023-03-14T02:45:28;3.93;;;1.10;;
12350;SDS011;6240;51.538;7.696;2023-03-14T02:47:59;3.53;;;1.30;;
12350;SDS011;6240;51.538;7.696;2023-03-14T02:50:28;3.97;;;1.40;;
12350;SDS011;6240;51.538;7.696;2023-03-14T02:52:58;3.83;;;1.10;;
12350;SDS011;6240;51.538;7.696;2023-03-14T02:55:25;4.27;;;1.20;;
12350;SDS011;6240;51.538;7.696;2023-03-14T02:57:52;2.27;;;1.30;;
12350;SDS011;6240;51.538;7.696;2023-03-14T03:00:20;4.20;;;1.30;;
12350;SDS011;6240;51.538;7.696;2023-03-14T03:02:52;4.53;;;1.27;;
12350;SDS011;6240;51.538;7.696;2023-03-14T03:05:19;5.40;;;1.30;;
12350;SDS011;6240;51.538;7.696;2023-03-14T03:07:46;6.63;;;1.57;;
12350;SDS011;6240;51.538;7.696;2023-03-14T03:10:13;3.83;;;1.20;;
12350;SDS011;6240;51.538;7.696;2023-03-14T03:12:40;5.03;;;1.60;;
12350;SDS011;6240;51.538;7.696;2023-03-14T03:15:09;2.27;;;1.20;;
12350;SDS011;6240;51.538;7.696;2023-03-14T03:17:36;5.60;;;1.57;;
12350;SDS011;6240;51.538;7.696;2023-03-14T03:20:05;2.60;;;1.00;;
12350;SDS011;6240;51.538;7.696;2023-03-14T03:22:34;4.90;;;1.40;;
12350;SDS011;6240;51.538;7.696;2023-03-14T03:25:01;4.70;;;1.30;;
12350;SDS011;6240;51.538;7.696;2023-03-14T03:27:29;4.00;;;1.40;;
12350;SDS011;6240;51.538;7.696;2023-03-14T03:29:57;5.30;;;1.77;;
12350;SDS011;6240;51.538;7.696;2023-03-14T03:32:24;4.30;;;1.40;;
12350;SDS011;6240;51.538;7.696;2023-03-14T03:34:51;4.93;;;1.43;;
12350;SDS011;6240;51.538;7.696;2023-03-14T03:37:20;2.53;;;1.10;;
12350;SDS011;6240;51.538;7.696;2023-03-14T03:39:49;3.90;;;1.13;;
12350;SDS011;6240;51.538;7.696;2023-03-14T03:42:16;2.80;;;1.20;;
12350;SDS011;6240;51.538;7.696;2023-03-14T03:44:44;4.50;;;1.37;;
12350;SDS011;6240;51.538;7.696;2023-03-14T03:47:12;7.37;;;1.80;;
12350;SDS011;6240;51.538;7.696;2023-03-14T03:49:39;4.90;;;1.33;;
12350;SDS011;6240;51.538;7.696;2023-03-14T03:52:06;4.10;;;1.37;;
12350;SDS011;6240;51.538;7.696;2023-03-14T03:54:35;2.67;;;1.40;;
12350;SDS011;6240;51.538;7.696;2023-03-14T03:57:03;3.63;;;1.37;;
12350;SDS011;6240;51.538;7.696;2023-03-14T03:59:30;4.80;;;1.20;;
12350;SDS011;6240;51.538;7.696;2023-03-14T04:01:57;4.53;;;1.30;;
12350;SDS011;6240;51.538;7.696;2023-03-14T04:04:24;8.63;;;1.63;;
12350;SDS011;6240;51.538;7.696;2023-03-14T04:06:51;5.30;;;1.70;;
12350;SDS011;6240;51.538;7.696;2023-03-14T04:09:19;3.87;;;1.47;;
12350;SDS011;6240;51.538;7.696;2023-03-14T04:11:47;5.17;;;1.47;;
12350;SDS011;6240;51.538;7.696;2023-03-14T04:14:15;5.20;;;1.53;;
12350;SDS011;6240;51.538;7.696;2023-03-14T04:16:42;3.03;;;1.50;;
12350;SDS011;6240;51.538;7.696;2023-03-14T04:19:09;3.10;;;1.30;;
12350;SDS011;6240;51.538;7.696;2023-03-14T04:21:36;2.73;;;1.17;;
12350;SDS011;6240;51.538;7.696;2023-03-14T04:24:05;4.40;;;1.60;;
12350;SDS011;6240;51.538;7.696;2023-03-14T04:26:32;4.37;;;1.73;;
12350;SDS011;6240;51.538;7.696;2023-03-14T04:29:01;5.63;;;1.30;;
12350;SDS011;6240;51.538;7.696;2023-03-14T04:31:28;4.20;;;1.40;;
12350;SDS011;6240;51.538;7.696;2023-03-14T04:33:55;1.63;;;1.23;;
12350;SDS011;6240;51.538;7.696;2023-03-14T04:36:22;3.20;;;1.30;;
12350;SDS011;6240;51.538;7.696;2023-03-14T04:38:49;4.97;;;1.60;;
12350;SDS011;6240;51.538;7.696;2023-03-14T04:41:17;2.33;;;1.10;;
12350;SDS011;6240;51.538;7.696;2023-03-14T04:43:44;3.47;;;1.03;;
12350;SDS011;6240;51.538;7.696;2023-03-14T04:46:12;2.37;;;0.97;;
12350;SDS011;6240;51.538;7.696;2023-03-14T04:48:40;1.47;;;1.00;;
12350;SDS011;6240;51.538;7.696;2023-03-14T04:51:07;1.93;;;1.10;;
12350;SDS011;6240;51.538;7.696;2023-03-14T04:53:34;2.97;;;1.57;;
12350;SDS011;6240;51.538;7.696;2023-03-14T04:56:02;3.40;;;1.37;;
12350;SDS011;6240;51.538;7.696;2023-03-14T04:58:30;3.83;;;1.60;;
12350;SDS011;6240;51.538;7.696;2023-03-14T05:01:01;6.40;;;1.70;;
12350;SDS011;6240;51.538;7.696;2023-03-14T05:03:29;4.63;;;1.77;;
12350;SDS011;6240;51.538;7.696;2023-03-14T05:05:57;3.00;;;1.50;;
12350;SDS011;6240;51.538;7.696;2023-03-14T05:08:25;3.50;;;1.40;;
12350;SDS011;6240;51.538;7.696;2023-03-14T05:10:53;4.63;;;1.63;;
12350;SDS011;6240;51.538;7.696;2023-03-14T05:13:20;4.90;;;1.70;;
12350;SDS011;6240;51.538;7.696;2023-03-14T05:15:47;4.83;;;1.90;;
12350;SDS011;6240;51.538;7.696;2023-03-14T05:18:15;5.83;;;1.80;;
12350;SDS011;6240;51.538;7.696;2023-03-14T05:20:44;4.70;;;1.97;;
12350;SDS011;6240;51.538;7.696;2023-03-14T05:23:11;5.50;;;1.70;;
12350;SDS011;6240;51.538;7.696;2023-03-14T05:25:38;4.63;;;1.60;;
12350;SDS011;6240;51.538;7.696;2023-03-14T05:28:05;3.93;;;2.10;;
12350;SDS011;6240;51.538;7.696;2023-03-14T05:30:32;4.47;;;2.00;;
12350;SDS011;6240;51.538;7.696;2023-03-14T05:33:00;6.57;;;2.20;;
12350;SDS011;6240;51.538;7.696;2023-03-14T05:35:27;4.23;;;1.97;;
12350;SDS011;6240;51.538;7.696;2023-03-14T05:37:55;5.47;;;1.83;;
12350;SDS011;6240;51.538;7.696;2023-03-14T05:40:22;4.87;;;1.87;;
12350;SDS011;6240;51.538;7.696;2023-03-14T05:42:50;3.60;;;1.57;;
12350;SDS011;6240;51.538;7.696;2023-03-14T05:45:17;2.03;;;1.37;;
12350;SDS011;6240;51.538;7.696;2023-03-14T05:47:44;3.90;;;1.60;;
12350;SDS011;6240;51.538;7.696;2023-03-14T05:50:11;3.13;;;1.80;;
12350;SDS011;6240;51.538;7.696;2023-03-14T05:52:38;4.23;;;1.80;;
12350;SDS011;6240;51.538;7.696;2023-03-14T05:55:07;3.30;;;1.97;;
12350;SDS011;6240;51.538;7.696;2023-03-14T05:57:35;2.53;;;1.50;;
12350;SDS011;6240;51.538;7.696;2023-03-14T06:00:02;4.73;;;1.63;;
12350;SDS011;6240;51.538;7.696;2023-03-14T06:02:30;4.43;;;1.90;;
12350;SDS011;6240;51.538;7.696;2023-03-14T06:04:57;2.63;;;1.57;;
12350;SDS011;6240;51.538;7.696;2023-03-14T06:07:24;4.07;;;2.27;;
12350;SDS011;6240;51.538;7.696;2023-03-14T06:09:51;4.00;;;1.70;;
12350;SDS011;6240;51.538;7.696;2023-03-14T06:12:20;4.67;;;1.90;;
12350;SDS011;6240;51.538;7.696;2023-03-14T06:14:47;3.37;;;1.60;;
12350;SDS011;6240;51.538;7.696;2023-03-14T06:17:14;3.67;;;1.90;;
12350;SDS011;6240;51.538;7.696;2023-03-14T06:19:41;5.93;;;2.23;;
12350;SDS011;6240;51.538;7.696;2023-03-14T06:22:08;6.87;;;1.90;;
12350;SDS011;6240;51.538;7.696;2023-03-14T06:24:36;7.33;;;1.90;;
12350;SDS011;6240;51.538;7.696;2023-03-14T06:27:06;2.70;;;1.73;;
12350;SDS011;6240;51.538;7.696;2023-03-14T06:29:36;4.77;;;1.80;;
12350;SDS011;6240;51.538;7.696;2023-03-14T06:32:04;3.37;;;1.30;;
12350;SDS011;6240;51.538;7.696;2023-03-14T06:34:31;4.50;;;1.50;;
12350;SDS011;6240;51.538;7.696;2023-03-14T06:36:59;2.43;;;1.37;;
12350;SDS011;6240;51.538;7.696;2023-03-14T06:39:28;1.33;;;0.90;;
12350;SDS011;6240;51.538;7.696;2023-03-14T06:41:56;1.93;;;1.10;;
12350;SDS011;6240;51.538;7.696;2023-03-14T06:44:24;1.43;;;1.17;;
12350;SDS011;6240;51.538;7.696;2023-03-14T06:46:53;2.40;;;1.00;;
12350;SDS011;6240;51.538;7.696;2023-03-14T06:49:21;1.87;;;1.00;;
12350;SDS011;6240;51.538;7.696;2023-03-14T06:51:51;4.07;;;1.20;;
12350;SDS011;6240;51.538;7.696;2023-03-14T06:54:20;1.53;;;1.03;;
12350;SDS011;6240;51.538;7.696;2023-03-14T06:56:47;2.37;;;1.00;;
12350;SDS011;6240;51.538;7.696;2023-03-14T06:59:15;1.47;;;0.73;;
12350;SDS011;6240;51.538;7.696;2023-03-14T07:01:45;2.47;;;1.10;;
12350;SDS011;6240;51.538;7.696;2023-03-14T07:04:17;1.83;;;1.20;;
12350;SDS011;6240;51.538;7.696;2023-03-14T07:06:44;1.80;;;1.10;;
12350;SDS011;6240;51.538;7.696;2023-03-14T07:09:12;1.63;;;1.00;;
12350;SDS011;6240;51.538;7.696;2023-03-14T07:11:39;2.30;;;0.90;;
12350;SDS011;6240;51.538;7.696;2023-03-14T07:14:07;2.30;;;1.10;;
12350;SDS011;6240;51.538;7.696;2023-03-14T07:16:34;2.73;;;0.97;;
12350;SDS011;6240;51.538;7.696;2023-03-14T07:19:02;1.40;;;1.00;;
12350;SDS011;6240;51.538;7.696;2023-03-14T07:21:30;1.40;;;1.17;;
12350;SDS011;6240;51.538;7.696;2023-03-14T07:24:00;2.60;;;1.03;;
12350;SDS011;6240;51.538;7.696;2023-03-14T07:26:27;1.23;;;0.90;;
12350;SDS011;6240;51.538;7.696;2023-03-14T07:28:54;1.57;;;0.70;;
12350;SDS011;6240;51.538;7.696;2023-03-14T07:31:21;0.80;;;0.80;;
12350;SDS011;6240;51.538;7.696;2023-03-14T07:33:48;1.23;;;0.90;;
12350;SDS011;6240;51.538;7.696;2023-03-14T07:36:16;1.53;;;0.77;;
12350;SDS011;6240;51.538;7.696;2023-03-14T07:38:44;0.73;;;0.70;;
12350;SDS011;6240;51.538;7.696;2023-03-14T07:41:11;1.07;;;1.00;;
12350;SDS011;6240;51.538;7.696;2023-03-14T07:43:39;3.57;;;0.90;;
12350;SDS011;6240;51.538;7.696;2023-03-14T07:46:08;1.87;;;0.90;;
12350;SDS011;6240;51.538;7.696;2023-03-14T07:48:35;3.33;;;0.90;;
12350;SDS011;6240;51.538;7.696;2023-03-14T07:51:03;1.30;;;1.20;;
12350;SDS011;6240;51.538;7.696;2023-03-14T07:53:30;2.73;;;0.90;;
12350;SDS011;6240;51.538;7.696;2023-03-14T07:55:59;1.23;;;0.90;;
12350;SDS011;6240;51.538;7.696;2023-03-14T07:58:26;0.80;;;0.80;;
12350;SDS011;6240;51.538;7.696;2023-03-14T08:00:53;1.87;;;1.47;;
12350;SDS011;6240;51.538;7.696;2023-03-14T08:03:20;0.90;;;0.80;;
12350;SDS011;6240;51.538;7.696;2023-03-14T08:05:48;1.00;;;0.80;;
12350;SDS011;6240;51.538;7.696;2023-03-14T08:08:16;1.23;;;0.90;;
12350;SDS011;6240;51.538;7.696;2023-03-14T08:10:43;1.13;;;0.77;;
12350;SDS011;6240;51.538;7.696;2023-03-14T08:13:12;1.57;;;0.90;;
12350;SDS011;6240;51.538;7.696;2023-03-14T08:15:39;2.13;;;1.10;;
12350;SDS011;6240;51.538;7.696;2023-03-14T08:18:07;0.87;;;0.87;;
12350;SDS011;6240;51.538;7.696;2023-03-14T08:20:35;1.27;;;0.90;;
12350;SDS011;6240;51.538;7.696;2023-03-14T08:23:02;2.80;;;0.90;;
12350;SDS011;6240;51.538;7.696;2023-03-14T08:25:29;2.17;;;0.97;;
12350;SDS011;6240;51.538;7.696;2023-03-14T08:27:57;2.23;;;0.90;;
12350;SDS011;6240;51.538;7.696;2023-03-14T08:30:26;1.00;;;0.90;;
12350;SDS011;6240;51.538;7.696;2023-03-14T08:32:53;1.07;;;1.00;;
12350;SDS011;6240;51.538;7.696;2023-03-14T08:35:20;2.70;;;1.27;;
12350;SDS011;6240;51.538;7.696;2023-03-14T08:37:47;0.87;;;0.87;;
12350;SDS011;6240;51.538;7.696;2023-03-14T08:40:15;0.90;;;0.90;;
12350;SDS011;6240;51.538;7.696;2023-03-14T08:42:42;2.13;;;1.27;;
12350;SDS011;6240;51.538;7.696;2023-03-14T08:45:10;1.50;;;1.40;;
12350;SDS011;6240;51.538;7.696;2023-03-14T08:47:39;1.73;;;1.60;;
12350;SDS011;6240;51.538;7.696;2023-03-14T08:50:07;1.50;;;1.40;;
12350;SDS011;6240;51.538;7.696;2023-03-14T08:52:34;1.47;;;1.37;;
12350;SDS011;6240;51.538;7.696;2023-03-14T08:55:02;2.43;;;1.50;;
12350;SDS011;6240;51.538;7.696;2023-03-14T08:57:30;1.80;;;1.70;;
12350;SDS011;6240;51.538;7.696;2023-03-14T08:59:59;2.13;;;1.90;;
12350;SDS011;6240;51.538;7.696;2023-03-14T09:02:26;1.73;;;1.63;;
12350;SDS011;6240;51.538;7.696;2023-03-14T09:04:54;1.83;;;1.60;;
12350;SDS011;6240;51.538;7.696;2023-03-14T09:07:22;1.90;;;1.70;;
12350;SDS011;6240;51.538;7.696;2023-03-14T09:09:51;3.27;;;1.90;;
12350;SDS011;6240;51.538;7.696;2023-03-14T09:12:19;1.77;;;1.67;;
12350;SDS011;6240;51.538;7.696;2023-03-14T09:14:46;2.13;;;1.93;;
12350;SDS011;6240;51.538;7.696;2023-03-14T09:17:13;1.80;;;1.63;;
12350;SDS011;6240;51.538;7.696;2023-03-14T09:19:40;2.17;;;1.83;;
12350;SDS011;6240;51.538;7.696;2023-03-14T09:22:09;1.90;;;1.80;;
12350;SDS011;6240;51.538;7.696;2023-03-14T09:24:36;1.70;;;1.60;;
12350;SDS011;6240;51.538;7.696;2023-03-14T09:27:04;2.20;;;1.73;;
12350;SDS011;6240;51.538;7.696;2023-03-14T09:29:31;2.27;;;1.87;;
12350;SDS011;6240;51.538;7.696;2023-03-14T09:31:58;1.77;;;1.67;;
12350;SDS011;6240;51.538;7.696;2023-03-14T09:34:26;2.80;;;2.10;;
12350;SDS011;6240;51.538;7.696;2023-03-14T09:36:55;2.33;;;2.13;;
12350;SDS011;6240;51.538;7.696;2023-03-14T09:39:30;2.53;;;2.33;;
12350;SDS011;6240;51.538;7.696;2023-03-14T09:42:00;2.37;;;2.17;;
12350;SDS011;6240;51.538;7.696;2023-03-14T09:44:31;2.77;;;2.57;;
12350;SDS011;6240;51.538;7.696;2023-03-14T09:47:01;2.77;;;2.47;;
12350;SDS011;6240;51.538;7.696;2023-03-14T09:49:32;2.70;;;2.50;;
12350;SDS011;6240;51.538;7.696;2023-03-14T09:52:05;2.37;;;2.17;;
12350;SDS011;6240;51.538;7.696;2023-03-14T09:54:38;1.40;;;1.30;;
12350;SDS011;6240;51.538;7.696;2023-03-14T09:57:09;1.60;;;1.50;;
12350;SDS011;6240;51.538;7.696;2023-03-14T09:59:38;1.23;;;1.13;;
12350;SDS011;6240;51.538;7.696;2023-03-14T10:02:11;1.17;;;1.17;;
12350;SDS011;6240;51.538;7.696;2023-03-14T10:04:41;1.27;;;1.23;;
12350;SDS011;6240;51.538;7.696;2023-03-14T10:07:11;0.87;;;0.87;;
12350;SDS011;6240;51.538;7.696;2023-03-14T10:09:43;1.00;;;0.90;;
12350;SDS011;6240;51.538;7.696;2023-03-14T10:12:10;1.70;;;0.60;;
12350;SDS011;6240;51.538;7.696;2023-03-14T10:14:44;0.77;;;0.70;;
12350;SDS011;6240;51.538;7.696;2023-03-14T10:17:12;0.87;;;0.77;;
12350;SDS011;6240;51.538;7.696;2023-03-14T10:19:44;0.83;;;0.70;;
12350;SDS011;6240;51.538;7.696;2023-03-14T10:22:18;0.80;;;0.63;;
12350;SDS011;6240;51.538;7.696;2023-03-14T10:24:49;1.33;;;1.00;;
12350;SDS011;6240;51.538;7.696;2023-03-14T10:27:18;1.87;;;0.93;;
12350;SDS011;6240;51.538;7.696;2023-03-14T10:29:51;0.70;;;0.70;;
12350;SDS011;6240;51.538;7.696;2023-03-14T10:32:19;3.90;;;0.93;;
12350;SDS011;6240;51.538;7.696;2023-03-14T10:34:54;2.17;;;1.07;;
12350;SDS011;6240;51.538;7.696;2023-03-14T10:37:30;0.80;;;0.80;;
12350;SDS011;6240;51.538;7.696;2023-03-14T10:40:00;1.40;;;1.17;;
12350;SDS011;6240;51.538;7.696;2023-03-14T10:42:30;1.50;;;1.40;;
12350;SDS011;6240;51.538;7.696;2023-03-14T10:45:00;3.13;;;2.07;;
12350;SDS011;6240;51.538;7.696;2023-03-14T10:47:27;1.57;;;1.47;;
12350;SDS011;6240;51.538;7.696;2023-03-14T10:49:55;3.67;;;1.83;;
12350;SDS011;6240;51.538;7.696;2023-03-14T10:52:22;2.53;;;1.80;;
12350;SDS011;6240;51.538;7.696;2023-03-14T10:54:53;1.23;;;1.00;;
12350;SDS011;6240;51.538;7.696;2023-03-14T10:57:22;1.47;;;0.90;;
12350;SDS011;6240;51.538;7.696;2023-03-14T10:59:49;2.00;;;1.30;;
12350;SDS011;6240;51.538;7.696;2023-03-14T11:02:31;1.10;;;1.00;;
12350;SDS011;6240;51.538;7.696;2023-03-14T11:05:05;1.50;;;1.33;;
12350;SDS011;6240;51.538;7.696;2023-03-14T11:07:38;1.83;;;1.10;;
12350;SDS011;6240;51.538;7.696;2023-03-14T11:10:11;1.53;;;1.40;;
12350;SDS011;6240;51.538;7.696;2023-03-14T11:12:44;1.47;;;1.37;;
12350;SDS011;6240;51.538;7.696;2023-03-14T11:15:14;1.93;;;1.27;;
12350;SDS011;6240;51.538;7.696;2023-03-14T11:17:46;4.40;;;2.53;;
12350;SDS011;6240;51.538;7.696;2023-03-14T11:20:22;2.83;;;2.60;;
12350;SDS011;6240;51.538;7.696;2023-03-14T11:22:55;2.60;;;2.20;;
12350;SDS011;6240;51.538;7.696;2023-03-14T11:25:26;1.87;;;1.30;;
12350;SDS011;6240;51.538;7.696;2023-03-14T11:28:01;1.70;;;0.90;;
12350;SDS011;6240;51.538;7.696;2023-03-14T11:30:32;1.63;;;0.70;;
12350;SDS011;6240;51.538;7.696;2023-03-14T11:33:02;0.97;;;0.63;;
12350;SDS011;6240;51.538;7.696;2023-03-14T11:35:32;1.17;;;0.80;;
12350;SDS011;6240;51.538;7.696;2023-03-14T11:38:03;1.60;;;0.70;;
12350;SDS011;6240;51.538;7.696;2023-03-14T11:40:33;1.50;;;1.00;;
12350;SDS011;6240;51.538;7.696;2023-03-14T11:43:11;0.47;;;0.47;;
12350;SDS011;6240;51.538;7.696;2023-03-14T11:45:42;1.97;;;0.57;;
12350;SDS011;6240;51.538;7.696;2023-03-14T11:48:20;1.33;;;0.63;;
12350;SDS011;6240;51.538;7.696;2023-03-14T11:50:50;0.77;;;0.77;;
12350;SDS011;6240;51.538;7.696;2023-03-14T11:53:19;0.93;;;0.70;;
12350;SDS011;6240;51.538;7.696;2023-03-14T11:55:49;1.27;;;0.87;;
12350;SDS011;6240;51.538;7.696;2023-03-14T11:58:22;0.83;;;0.63;;
12350;SDS011;6240;51.538;7.696;2023-03-14T12:00:53;0.83;;;0.67;;
12350;SDS011;6240;51.538;7.696;2023-03-14T12:03:24;0.93;;;0.60;;
12350;SDS011;6240;51.538;7.696;2023-03-14T12:05:59;1.97;;;0.70;;
12350;SDS011;6240;51.538;7.696;2023-03-14T12:08:40;1.13;;;0.60;;
12350;SDS011;6240;51.538;7.696;2023-03-14T12:11:13;2.67;;;0.83;;
12350;SDS011;6240;51.538;7.696;2023-03-14T12:13:46;0.87;;;0.80;;
12350;SDS011;6240;51.538;7.696;2023-03-14T12:16:32;3.53;;;0.90;;
12350;SDS011;6240;51.538;7.696;2023-03-14T12:19:23;0.70;;;0.70;;
12350;SDS011;6240;51.538;7.696;2023-03-14T12:21:52;2.40;;;0.80;;
12350;SDS011;6240;51.538;7.696;2023-03-14T12:24:22;1.47;;;0.80;;
12350;SDS011;6240;51.538;7.696;2023-03-14T12:26:54;1.03;;;0.90;;
12350;SDS011;6240;51.538;7.696;2023-03-14T12:29:23;3.10;;;1.30;;
12350;SDS011;6240;51.538;7.696;2023-03-14T12:34:32;3.73;;;1.10;;
12350;SDS011;6240;51.538;7.696;2023-03-14T12:37:20;2.90;;;0.80;;
12350;SDS011;6240;51.538;7.696;2023-03-14T12:39:54;3.60;;;0.97;;
12350;SDS011;6240;51.538;7.696;2023-03-14T12:42:24;4.13;;;1.57;;
12350;SDS011;6240;51.538;7.696;2023-03-14T12:45:23;3.90;;;1.00;;
12350;SDS011;6240;51.538;7.696;2023-03-14T12:47:54;5.40;;;1.40;;
12350;SDS011;6240;51.538;7.696;2023-03-14T12:50:24;3.33;;;1.20;;
12350;SDS011;6240;51.538;7.696;2023-03-14T12:52:59;2.73;;;1.27;;
12350;SDS011;6240;51.538;7.696;2023-03-14T12:55:32;3.43;;;1.20;;
12350;SDS011;6240;51.538;7.696;2023-03-14T12:58:02;5.60;;;1.53;;
12350;SDS011;6240;51.538;7.696;2023-03-14T13:00:34;3.03;;;1.30;;
12350;SDS011;6240;51.538;7.696;2023-03-14T13:03:02;3.13;;;1.37;;
12350;SDS011;6240;51.538;7.696;2023-03-14T13:05:46;7.63;;;1.67;;
12350;SDS011;6240;51.538;7.696;2023-03-14T13:08:31;3.60;;;1.33;;
12350;SDS011;6240;51.538;7.696;2023-03-14T13:10:59;3.03;;;1.20;;
12350;SDS011;6240;51.538;7.696;2023-03-14T13:13:28;4.93;;;1.30;;
12350;SDS011;6240;51.538;7.696;2023-03-14T13:15:56;2.50;;;1.10;;
12350;SDS011;6240;51.538;7.696;2023-03-14T13:18:26;5.03;;;1.40;;
12350;SDS011;6240;51.538;7.696;2023-03-14T13:20:57;7.60;;;1.60;;
12350;SDS011;6240;51.538;7.696;2023-03-14T13:23:26;4.33;;;1.33;;
12350;SDS011;6240;51.538;7.696;2023-03-14T13:25:54;4.80;;;1.77;;
12350;SDS011;6240;51.538;7.696;2023-03-14T13:28:21;5.30;;;2.10;;
12350;SDS011;6240;51.538;7.696;2023-03-14T13:30:49;4.73;;;2.03;;
12350;SDS011;6240;51.538;7.696;2023-03-14T13:33:19;5.10;;;1.60;;
12350;SDS011;6240;51.538;7.696;2023-03-14T13:35:48;3.27;;;1.93;;
12350;SDS011;6240;51.538;7.696;2023-03-14T13:38:16;3.43;;;1.60;;
12350;SDS011;6240;51.538;7.696;2023-03-14T13:40:45;2.77;;;1.33;;
12350;SDS011;6240;51.538;7.696;2023-03-14T13:43:14;7.30;;;1.70;;
12350;SDS011;6240;51.538;7.696;2023-03-14T13:45:49;7.47;;;2.63;;
12350;SDS011;6240;51.538;7.696;2023-03-14T13:48:16;7.20;;;1.93;;
12350;SDS011;6240;51.538;7.696;2023-03-14T13:50:46;8.33;;;1.97;;
12350;SDS011;6240;51.538;7.696;2023-03-14T13:53:16;9.83;;;2.57;;
12350;SDS011;6240;51.538;7.696;2023-03-14T13:55:44;5.17;;;2.33;;
12350;SDS011;6240;51.538;7.696;2023-03-14T13:58:19;9.73;;;2.43;;
12350;SDS011;6240;51.538;7.696;2023-03-14T14:00:53;5.97;;;2.13;;
12350;SDS011;6240;51.538;7.696;2023-03-14T14:03:21;5.27;;;1.90;;
12350;SDS011;6240;51.538;7.696;2023-03-14T14:05:53;6.47;;;2.27;;
12350;SDS011;6240;51.538;7.696;2023-03-14T14:08:23;9.13;;;2.30;;
12350;SDS011;6240;51.538;7.696;2023-03-14T14:10:50;9.77;;;2.47;;
12350;SDS011;6240;51.538;7.696;2023-03-14T14:13:22;7.37;;;1.97;;
12350;SDS011;6240;51.538;7.696;2023-03-14T14:15:51;8.63;;;2.30;;
12350;SDS011;6240;51.538;7.696;2023-03-14T14:18:20;9.77;;;2.63;;
12350;SDS011;6240;51.538;7.696;2023-03-14T14:20:48;10.10;;;2.80;;
12350;SDS011;6240;51.538;7.696;2023-03-14T14:23:18;8.60;;;2.73;;
12350;SDS011;6240;51.538;7.696;2023-03-14T14:25:50;11.47;;;3.80;;
12350;SDS011;6240;51.538;7.696;2023-03-14T14:28:20;14.63;;;3.20;;
12350;SDS011;6240;51.538;7.696;2023-03-14T14:30:53;8.90;;;3.23;;
12350;SDS011;6240;51.538;7.696;2023-03-14T14:33:26;12.83;;;3.33;;
12350;SDS011;6240;51.538;7.696;2023-03-14T14:35:56;11.07;;;3.07;;
12350;SDS011;6240;51.538;7.696;2023-03-14T14:38:29;11.37;;;3.00;;
12350;SDS011;6240;51.538;7.696;2023-03-14T14:40:59;14.67;;;3.00;;
12350;SDS011;6240;51.538;7.696;2023-03-14T14:43:28;9.20;;;2.53;;
12350;SDS011;6240;51.538;7.696;2023-03-14T14:46:00;11.70;;;2.90;;
12350;SDS011;6240;51.538;7.696;2023-03-14T14:48:29;9.73;;;2.67;;
12350;SDS011;6240;51.538;7.696;2023-03-14T14:50:59;11.87;;;3.50;;
12350;SDS011;6240;51.538;7.696;2023-03-14T14:53:35;10.10;;;2.90;;
12350;SDS011;6240;51.538;7.696;2023-03-14T14:56:07;18.50;;;3.07;;
12350;SDS011;6240;51.538;7.696;2023-03-14T14:58:35;12.07;;;2.83;;
12350;SDS011;6240;51.538;7.696;2023-03-14T15:01:03;14.40;;;2.93;;
12350;SDS011;6240;51.538;7.696;2023-03-14T15:03:32;11.37;;;2.67;;
12350;SDS011;6240;51.538;7.696;2023-03-14T15:06:00;15.33;;;3.53;;
12350;SDS011;6240;51.538;7.696;2023-03-14T15:08:28;8.57;;;3.07;;
12350;SDS011;6240;51.538;7.696;2023-03-14T15:11:09;15.23;;;2.80;;
12350;SDS011;6240;51.538;7.696;2023-03-14T15:13:48;9.77;;;2.20;;
12350;SDS011;6240;51.538;7.696;2023-03-14T15:16:16;10.07;;;2.30;;
12350;SDS011;6240;51.538;7.696;2023-03-14T15:18:45;8.73;;;2.13;;